Time;durP1;ratioP1;P1;durP2;ratioP2;P2;SDS_P1;SDS_P2;PMS_P1;PMS_P2;Temp;Humidity;BMP_temperature;BMP_pressure;BME280_temperature;BME280_humidity;BME280_pressure;Samples;Min_cycle;Max_cycle;Signal;HPM_P1;HPM_P2
2022/11/02 00:00:19;;;;;;;14.32;8.10;;;6.70;99.90;;;;;;6253251;22;20023;-84
2022/11/02 00:03:06;;;;;;;21.63;8.13;;;6.70;99.90;;;;;;6275674;22;20051;-85
2022/11/02 00:05:54;;;;;;;24.95;7.68;;;6.60;99.90;;;;;;6253111;22;20341;-84
2022/11/02 00:08:41;;;;;;;19.15;7.57;;;6.50;99.90;;;;;;6275565;22;20106;-83
2022/11/02 00:11:28;;;;;;;19.45;7.28;;;6.40;99.90;;;;;;6276023;22;20114;-82
2022/11/02 00:14:16;;;;;;;17.05;7.20;;;6.30;99.90;;;;;;6252557;22;20132;-82
2022/11/02 00:17:06;;;;;;;23.38;8.65;;;6.30;99.90;;;;;;6275174;22;20089;-82
2022/11/02 00:19:53;;;;;;;19.25;8.15;;;6.40;99.90;;;;;;6274747;22;20113;-83
2022/11/02 00:22:41;;;;;;;23.75;8.45;;;6.40;99.90;;;;;;6274498;22;20023;-83
2022/11/02 00:25:36;;;;;;;28.50;8.93;;;6.40;99.90;;;;;;6274299;22;20351;-83
2022/11/02 00:28:23;;;;;;;18.02;6.80;;;6.60;99.90;;;;;;6275656;22;20024;-83
2022/11/02 00:31:10;;;;;;;20.20;6.38;;;6.70;99.90;;;;;;6274518;22;20095;-83
2022/11/02 00:33:58;;;;;;;21.52;6.53;;;7.00;99.90;;;;;;6276938;22;20024;-83
2022/11/02 00:36:48;;;;;;;15.88;6.18;;;7.10;99.90;;;;;;6276206;22;20081;-84
2022/11/02 00:39:41;;;;;;;19.30;8.05;;;7.20;99.90;;;;;;6256291;22;20422;-84
2022/11/02 00:42:28;;;;;;;18.60;6.78;;;7.20;99.90;;;;;;6254078;22;20055;-84
2022/11/02 00:45:16;;;;;;;13.95;6.22;;;7.20;99.90;;;;;;6275919;22;20024;-83
2022/11/02 00:48:04;;;;;;;13.70;5.97;;;7.20;99.90;;;;;;6254456;22;20024;-84
2022/11/02 00:50:54;;;;;;;17.42;6.03;;;7.40;99.90;;;;;;6275347;22;20020;-84
2022/11/02 00:53:43;;;;;;;13.73;4.88;;;7.60;99.90;;;;;;6254562;22;20339;-84
2022/11/02 00:56:31;;;;;;;14.05;4.50;;;7.50;99.90;;;;;;6276457;22;20311;-83
2022/11/02 00:59:20;;;;;;;15.32;5.35;;;7.40;99.90;;;;;;6255338;22;20668;-83
2022/11/02 01:02:10;;;;;;;15.18;5.03;;;7.40;99.90;;;;;;6258648;22;20055;-82
2022/11/02 01:05:00;;;;;;;14.75;4.97;;;7.40;99.90;;;;;;6257615;22;20035;-84
2022/11/02 01:07:50;;;;;;;13.63;5.78;;;7.50;99.90;;;;;;6284988;22;20030;-83
2022/11/02 01:10:45;;;;;;;11.23;4.60;;;7.70;99.90;;;;;;6290683;22;20023;-83
2022/11/02 01:13:34;;;;;;;10.45;4.38;;;7.90;99.90;;;;;;6277800;22;20024;-82
2022/11/02 01:16:21;;;;;;;9.38;4.32;;;7.90;99.90;;;;;;6292236;22;20026;-84
2022/11/02 01:19:10;;;;;;;17.65;4.55;;;8.20;99.90;;;;;;6277734;22;20032;-84
2022/11/02 01:21:57;;;;;;;7.22;3.95;;;8.30;99.90;;;;;;6256686;22;20035;-84
2022/11/02 01:24:44;;;;;;;9.73;4.65;;;8.30;99.90;;;;;;6276489;22;20047;-83
2022/11/02 01:27:31;;;;;;;16.00;4.68;;;8.30;99.90;;;;;;6278118;22;20020;-83
2022/11/02 01:30:18;;;;;;;12.15;4.03;;;8.30;99.90;;;;;;6276770;22;20415;-84
2022/11/02 01:33:06;;;;;;;14.90;4.57;;;8.20;99.90;;;;;;6277449;22;20022;-83
2022/11/02 01:35:54;;;;;;;8.43;4.40;;;8.30;99.90;;;;;;6275929;22;20051;-85
2022/11/02 01:38:41;;;;;;;10.10;4.47;;;8.40;99.90;;;;;;6253513;22;20098;-85
2022/11/02 01:41:28;;;;;;;8.50;3.03;;;8.30;90.50;;;;;;6276955;22;20059;-84
2022/11/02 01:44:33;;;;;;;11.80;3.42;;;8.50;95.60;;;;;;6276345;22;20024;-85
2022/11/02 01:47:31;;;;;;;10.77;3.60;;;8.60;1.00;;;;;;6254670;22;20367;-83
2022/11/02 01:50:21;;;;;;;11.90;4.15;;;8.60;99.90;;;;;;6277767;22;20423;-83
2022/11/02 01:53:08;;;;;;;9.27;3.47;;;8.50;99.90;;;;;;6254202;22;20067;-84
2022/11/02 01:55:56;;;;;;;9.93;3.47;;;8.60;99.90;;;;;;6276591;22;20023;-83
2022/11/02 01:58:46;;;;;;;15.85;4.00;;;8.60;1.00;;;;;;6255435;22;20024;-85
2022/11/02 02:01:33;;;;;;;9.75;4.20;;;8.60;1.00;;;;;;6254985;22;20031;-84
2022/11/02 02:04:22;;;;;;;5.82;3.25;;;8.50;1.00;;;;;;6253540;22;20031;-82
2022/11/02 02:07:15;;;;;;;12.23;3.60;;;8.50;1.00;;;;;;6276574;22;20024;-84
2022/11/02 02:10:04;;;;;;;12.38;3.70;;;8.50;98.70;;;;;;6253308;22;20127;-83
2022/11/02 02:12:51;;;;;;;12.55;3.72;;;8.50;28.80;;;;;;6275245;22;20024;-83
2022/11/02 02:15:56;;;;;;;9.52;3.47;;;8.50;99.90;;;;;;6276463;22;20046;-83
2022/11/02 02:18:51;;;;;;;10.73;3.70;;;8.60;1.00;;;;;;6280961;22;20129;-83
2022/11/02 02:21:53;;;;;;;13.52;3.92;;;8.60;1.00;;;;;;6256517;22;20030;-84
2022/11/02 02:24:57;;;;;;;9.55;3.53;;;8.60;99.90;;;;;;6275725;22;20026;-83
2022/11/02 02:28:05;;;;;;;12.07;3.90;;;8.60;99.90;;;;;;6276187;22;20074;-84
2022/11/02 02:30:55;;;;;;;9.52;3.90;;;8.50;1.00;;;;;;6275505;22;20441;-84
2022/11/02 02:33:45;;;;;;;14.60;4.15;;;8.50;1.00;;;;;;6277891;22;20094;-84
2022/11/02 02:36:55;;;;;;;15.13;3.17;;;8.60;99.90;;;;;;6275845;22;20028;-84
2022/11/02 02:39:56;;;;;;;9.55;3.28;;;8.60;99.90;;;;;;6277858;22;20048;-85
2022/11/02 02:42:50;;;;;;;15.70;3.17;;;8.60;1.00;;;;;;6255323;22;20104;-85
2022/11/02 02:45:43;;;;;;;9.82;2.80;;;8.70;45.00;;;;;;6277300;22;20039;-85
2022/11/02 02:48:32;;;;;;;10.88;3.38;;;8.80;99.90;;;;;;6274288;22;20055;-85
2022/11/02 02:51:27;;;;;;;10.43;2.70;;;8.90;99.90;;;;;;6274875;22;20098;-85
2022/11/02 02:54:26;;;;;;;4.97;2.78;;;9.00;1.00;;;;;;6274607;22;20479;-84
2022/11/02 02:57:17;;;;;;;8.68;2.25;;;9.00;99.90;;;;;;6276887;22;20420;-86
2022/11/02 03:00:10;;;;;;;10.27;2.30;;;9.00;1.00;;;;;;6277254;22;20028;-84
2022/11/02 03:03:01;;;;;;;9.00;2.80;;;9.00;1.00;;;;;;6256177;22;20037;-84
2022/11/02 03:06:15;;;;;;;7.93;2.38;;;9.10;99.90;;;;;;6279791;22;20023;-84
2022/11/02 03:09:31;;;;;;;7.88;2.63;;;9.20;99.90;;;;;;6276760;22;20260;-85
2022/11/02 03:12:34;;;;;;;10.70;2.45;;;9.20;1.00;;;;;;6251583;22;20094;-86
2022/11/02 03:15:47;;;;;;;13.35;3.25;;;9.30;1.00;;;;;;6273882;22;20098;-84
2022/11/02 03:18:52;;;;;;;8.00;2.22;;;9.30;99.90;;;;;;6275693;22;20383;-84
2022/11/02 03:21:42;;;;;;;7.15;2.60;;;9.30;99.90;;;;;;6252527;22;20107;-85
2022/11/02 03:24:36;;;;;;;7.43;2.10;;;9.20;99.90;;;;;;6274959;22;20036;-84
2022/11/02 03:27:37;;;;;;;6.97;2.88;;;9.30;99.90;;;;;;6255012;22;20120;-84
2022/11/02 03:30:30;;;;;;;9.57;2.33;;;9.30;99.90;;;;;;6251346;22;20039;-84
2022/11/02 03:33:31;;;;;;;5.40;2.22;;;9.30;61.10;;;;;;6274268;22;20030;-85
2022/11/02 03:36:26;;;;;;;4.22;1.98;;;9.30;22.50;;;;;;6252643;22;20043;-85
2022/11/02 03:39:23;;;;;;;13.27;3.22;;;9.20;21.80;;;;;;6274210;22;20427;-85
2022/11/02 03:42:17;;;;;;;8.75;3.05;;;9.10;42.80;;;;;;6274390;22;20422;-84
2022/11/02 03:45:17;;;;;;;11.25;2.83;;;9.00;61.30;;;;;;6232306;22;20050;-83
2022/11/02 03:48:09;;;;;;;12.82;3.17;;;9.00;86.80;;;;;;6252644;22;20019;-84
2022/11/02 03:51:02;;;;;;;9.27;3.10;;;8.90;99.90;;;;;;6252270;22;20030;-86
2022/11/02 03:54:07;;;;;;;11.70;4.75;;;8.90;99.90;;;;;;6275990;22;20032;-85
2022/11/02 03:56:57;;;;;;;8.32;3.67;;;8.80;99.90;;;;;;6275128;22;20024;-85
2022/11/02 03:59:44;;;;;;;10.48;4.15;;;8.80;99.90;;;;;;6273681;22;20027;-84
2022/11/02 04:02:36;;;;;;;8.70;3.65;;;8.80;99.90;;;;;;6286226;22;20069;-84
2022/11/02 04:05:31;;;;;;;11.55;3.67;;;8.80;99.90;;;;;;6266911;22;20023;-84
2022/11/02 04:08:36;;;;;;;13.38;2.67;;;8.80;99.90;;;;;;6267242;22;20023;-84
2022/11/02 04:14:38;;;;;;;10.52;2.65;;;8.90;99.90;;;;;;6296168;22;20047;-84
2022/11/02 04:20:34;;;;;;;5.60;2.35;;;8.80;99.90;;;;;;6281585;22;20028;-84
2022/11/02 04:26:27;;;;;;;10.73;2.38;;;8.90;99.90;;;;;;6279731;22;20074;-84
2022/11/02 04:29:14;;;;;;;7.00;2.53;;;8.80;99.90;;;;;;6279988;22;20095;-84
2022/11/02 04:32:07;;;;;;;15.02;2.55;;;8.80;96.40;;;;;;6254457;22;20038;-87
2022/11/02 04:34:54;;;;;;;11.07;3.05;;;8.70;94.40;;;;;;6277329;22;20039;-85
2022/11/02 04:41:40;;;;;;;6.28;2.60;;;8.60;99.90;;;;;;6277018;22;20027;-84
2022/11/02 04:44:00;;;;;;;9.05;2.85;;;8.50;99.90;;;;;;6276868;22;20034;-85
2022/11/02 04:46:50;;;;;;;9.65;2.83;;;8.50;99.90;;;;;;6276656;22;20034;-85
2022/11/02 04:49:37;;;;;;;6.13;2.72;;;8.40;99.90;;;;;;6255527;22;20387;-82
2022/11/02 04:52:24;;;;;;;9.73;2.67;;;8.40;99.90;;;;;;6276314;22;20415;-86
2022/11/02 04:55:11;;;;;;;8.85;3.10;;;8.40;99.90;;;;;;6276464;22;20023;-84
2022/11/02 04:57:59;;;;;;;12.25;3.45;;;8.40;99.90;;;;;;6276146;22;20034;-85
2022/11/02 05:00:48;;;;;;;12.68;3.28;;;8.40;99.90;;;;;;6278133;22;20150;-85
2022/11/02 05:03:35;;;;;;;9.07;2.70;;;8.40;99.90;;;;;;6252469;22;20075;-85
2022/11/02 05:06:23;;;;;;;10.25;3.05;;;8.30;99.90;;;;;;6277058;22;20153;-83
2022/11/02 05:09:10;;;;;;;5.50;2.40;;;8.30;1.00;;;;;;6254744;22;20051;-85
2022/11/02 05:11:58;;;;;;;7.70;2.88;;;8.30;1.00;;;;;;6276223;22;20094;-83
2022/11/02 05:14:45;;;;;;;10.50;2.95;;;8.30;1.00;;;;;;6254344;22;20324;-84
2022/11/02 05:17:32;;;;;;;11.00;3.15;;;8.40;1.00;;;;;;6281422;22;20028;-83
2022/11/02 05:20:19;;;;;;;12.07;3.17;;;8.30;1.00;;;;;;6275719;22;20601;-83
2022/11/02 05:23:07;;;;;;;7.88;2.88;;;8.30;1.00;;;;;;6253743;22;20162;-85
2022/11/02 05:26:06;;;;;;;11.13;2.80;;;8.20;1.00;;;;;;6254116;22;20091;-81
2022/11/02 05:28:53;;;;;;;7.90;3.22;;;8.10;43.70;;;;;;6276165;22;20320;-81
2022/11/02 05:31:44;;;;;;;7.78;3.53;;;8.10;99.90;;;;;;6277125;22;20034;-82
2022/11/02 05:34:31;;;;;;;8.35;2.72;;;8.00;99.90;;;;;;6254813;22;20019;-82
2022/11/02 05:37:19;;;;;;;13.88;3.10;;;8.00;99.90;;;;;;6276031;22;20019;-82
2022/11/02 05:40:07;;;;;;;8.07;2.70;;;7.90;99.90;;;;;;6275131;22;20174;-82
2022/11/02 05:43:00;;;;;;;13.73;3.35;;;8.00;99.90;;;;;;6275957;22;20103;-83
2022/11/02 05:45:56;;;;;;;14.57;3.47;;;8.10;99.90;;;;;;6274918;22;20103;-82
2022/11/02 05:48:43;;;;;;;13.23;3.80;;;8.10;99.90;;;;;;6275381;22;20078;-84
2022/11/02 05:51:30;;;;;;;12.43;2.67;;;8.10;99.90;;;;;;6275716;22;20318;-82
2022/11/02 05:54:19;;;;;;;11.23;2.60;;;8.20;99.90;;;;;;6275655;22;20023;-82
2022/11/02 05:57:06;;;;;;;8.07;2.55;;;8.20;99.90;;;;;;6254861;22;20034;-84
2022/11/02 05:59:55;;;;;;;9.05;2.50;;;8.30;99.90;;;;;;6278338;22;20019;-86
2022/11/02 06:02:42;;;;;;;10.05;2.47;;;8.40;70.80;;;;;;6283453;22;20024;-87
2022/11/02 06:05:29;;;;;;;10.80;2.60;;;8.40;1.00;;;;;;6255496;22;20030;-85
2022/11/02 06:08:21;;;;;;;11.40;2.28;;;8.40;1.00;;;;;;6256879;22;20094;-88
2022/11/02 06:11:10;;;;;;;7.47;2.37;;;8.50;1.00;;;;;;6276948;22;20577;-86
2022/11/02 06:13:59;;;;;;;9.93;2.60;;;8.50;1.00;;;;;;6277053;22;20399;-85
2022/11/02 06:16:46;;;;;;;11.07;2.67;;;8.50;99.90;;;;;;6278743;22;20027;-87
2022/11/02 06:19:35;;;;;;;10.52;3.20;;;8.50;99.90;;;;;;6255860;22;20043;-87
2022/11/02 06:22:23;;;;;;;11.98;2.22;;;8.50;99.90;;;;;;6277076;22;20085;-87
2022/11/02 06:25:10;;;;;;;11.57;2.95;;;8.60;99.90;;;;;;6254799;22;20170;-85
2022/11/02 06:27:58;;;;;;;10.15;3.00;;;8.60;99.90;;;;;;6277881;22;20359;-85
2022/11/02 06:30:53;;;;;;;11.60;3.13;;;8.70;99.90;;;;;;6255664;22;20027;-87
2022/11/02 06:33:40;;;;;;;11.57;3.08;;;8.80;99.90;;;;;;6258974;22;20111;-90
2022/11/02 06:36:30;;;;;;;10.90;3.10;;;8.90;99.90;;;;;;6263078;22;20027;-87
2022/11/02 06:39:17;;;;;;;11.25;3.28;;;9.00;99.90;;;;;;6263165;22;20027;-87
2022/11/02 06:42:06;;;;;;;16.13;2.75;;;9.10;99.90;;;;;;6282626;22;20035;-90
2022/11/02 06:44:54;;;;;;;14.05;3.00;;;9.20;99.90;;;;;;6277173;22;20022;-86
2022/11/02 06:47:41;;;;;;;12.05;3.13;;;9.40;99.90;;;;;;6278315;22;20366;-88
2022/11/02 06:50:31;;;;;;;14.73;3.30;;;9.50;18.10;;;;;;6255626;22;20030;-86
2022/11/02 06:53:26;;;;;;;9.38;3.20;;;9.50;1.00;;;;;;6280561;22;20294;-84
2022/11/02 06:56:13;;;;;;;6.88;2.10;;;9.60;1.00;;;;;;6261594;22;20043;-85
2022/11/02 06:59:03;;;;;;;10.70;2.50;;;9.80;1.00;;;;;;6287234;22;20030;-86
2022/11/02 07:02:00;;;;;;;13.52;3.33;;;9.80;1.00;;;;;;6281172;22;20037;-85
2022/11/02 07:04:51;;;;;;;13.73;3.28;;;9.90;1.00;;;;;;6277041;22;20051;-87
2022/11/02 07:07:42;;;;;;;13.00;2.72;;;10.00;99.90;;;;;;6255557;22;20024;-85
2022/11/02 07:10:36;;;;;;;12.50;3.20;;;10.00;99.90;;;;;;6276904;22;20066;-85
2022/11/02 07:13:24;;;;;;;10.63;2.17;;;10.10;99.90;;;;;;6255671;22;20024;-87
2022/11/02 07:16:11;;;;;;;11.20;2.58;;;10.10;99.90;;;;;;6256791;22;20110;-84
2022/11/02 07:18:59;;;;;;;8.95;2.38;;;10.20;99.90;;;;;;6256348;22;20362;-86
2022/11/02 07:21:55;;;;;;;11.02;2.60;;;10.20;99.90;;;;;;6256094;22;20024;-85
2022/11/02 07:24:42;;;;;;;12.35;2.38;;;10.20;99.90;;;;;;6278611;22;20647;-86
2022/11/02 07:27:29;;;;;;;10.52;2.40;;;10.20;99.90;;;;;;6256012;22;20378;-90
2022/11/02 07:30:19;;;;;;;9.50;2.47;;;10.30;99.90;;;;;;6254914;22;20027;-85
2022/11/02 07:33:15;;;;;;;14.77;2.67;;;10.30;99.90;;;;;;6255729;22;20024;-84
2022/11/02 07:36:09;;;;;;;10.02;2.38;;;10.30;99.90;;;;;;6255686;22;20031;-85
2022/11/02 07:38:56;;;;;;;15.25;3.60;;;10.30;99.90;;;;;;6256154;22;20038;-85
2022/11/02 07:41:51;;;;;;;12.52;2.50;;;10.30;99.90;;;;;;6255817;22;20105;-85
2022/11/02 07:44:39;;;;;;;9.48;2.45;;;10.30;99.90;;;;;;6279409;22;20028;-88
2022/11/02 07:47:26;;;;;;;11.70;2.60;;;10.40;99.90;;;;;;6255676;22;20047;-84
2022/11/02 07:50:19;;;;;;;12.80;2.47;;;10.40;99.90;;;;;;6255778;22;20084;-85
2022/11/02 07:53:11;;;;;;;13.25;2.42;;;10.50;99.90;;;;;;6278098;22;20091;-86
2022/11/02 07:56:03;;;;;;;12.98;2.63;;;10.70;99.90;;;;;;6256064;22;20415;-87
2022/11/02 07:58:52;;;;;;;9.05;2.55;;;11.10;99.90;;;;;;6254618;22;20098;-88
2022/11/02 08:01:41;;;;;;;8.40;2.53;;;11.50;99.90;;;;;;6254468;22;20042;-88
2022/11/02 08:04:34;;;;;;;9.63;2.30;;;11.80;99.90;;;;;;6255538;22;20319;-89
2022/11/02 08:07:33;;;;;;;6.82;2.03;;;11.80;99.90;;;;;;6256127;22;20149;-87
2022/11/02 08:10:26;;;;;;;11.90;2.35;;;11.90;99.90;;;;;;6255094;22;20107;-86
2022/11/02 08:13:19;;;;;;;8.70;1.88;;;12.10;99.90;;;;;;6255425;22;20023;-87
2022/11/02 08:16:07;;;;;;;9.40;2.15;;;12.30;60.40;;;;;;6255830;22;20418;-88
2022/11/02 08:19:06;;;;;;;8.93;2.10;;;12.40;25.30;;;;;;6255165;22;20028;-86
2022/11/02 08:21:55;;;;;;;8.73;2.67;;;12.60;1.00;;;;;;6264566;22;20149;-87
2022/11/02 08:24:43;;;;;;;8.15;2.13;;;12.70;1.00;;;;;;6277499;22;20027;-84
2022/11/02 08:27:30;;;;;;;9.25;1.80;;;12.80;1.00;;;;;;6253578;22;20024;-83
2022/11/02 08:30:20;;;;;;;9.63;1.95;;;13.00;1.00;;;;;;6255156;22;20020;-86
2022/11/02 08:33:14;;;;;;;10.75;2.13;;;13.10;1.00;;;;;;6255898;22;20047;-86
2022/11/02 08:36:08;;;;;;;5.25;1.52;;;13.20;1.00;;;;;;6242899;22;20102;-85
2022/11/02 08:38:56;;;;;;;8.80;2.33;;;13.20;1.00;;;;;;6261965;22;20024;-86
2022/11/02 08:42:11;;;;;;;7.13;1.90;;;13.10;1.00;;;;;;6268066;22;20245;-87
2022/11/02 08:45:01;;;;;;;11.98;2.00;;;13.00;1.00;;;;;;6256294;22;20035;-88
2022/11/02 08:47:48;;;;;;;9.63;2.42;;;13.00;1.00;;;;;;6255939;22;20073;-86
2022/11/02 08:50:36;;;;;;;12.20;2.10;;;13.10;1.00;;;;;;6276763;22;20031;-88
2022/11/02 08:53:24;;;;;;;9.07;2.00;;;13.20;1.00;;;;;;6278318;22;20043;-86
2022/11/02 08:56:11;;;;;;;14.80;2.17;;;13.50;99.90;;;;;;6277209;22;20024;-88
2022/11/02 08:58:58;;;;;;;13.50;2.75;;;13.60;99.90;;;;;;6256117;22;20028;-86
2022/11/02 09:01:45;;;;;;;8.35;1.98;;;13.60;99.90;;;;;;6278934;22;20038;-88
2022/11/02 09:04:33;;;;;;;14.98;2.28;;;13.80;99.90;;;;;;6277051;22;20284;-86
2022/11/02 09:07:21;;;;;;;7.90;1.85;;;14.00;99.90;;;;;;6278977;22;20031;-83
2022/11/02 09:10:09;;;;;;;9.48;2.00;;;14.20;99.90;;;;;;6277863;22;20034;-84
2022/11/02 09:12:58;;;;;;;9.10;2.20;;;14.40;99.90;;;;;;6278665;22;20023;-86
2022/11/02 09:15:49;;;;;;;12.35;2.50;;;14.40;99.90;;;;;;6278927;22;20028;-87
2022/11/02 09:18:39;;;;;;;9.75;2.42;;;14.20;99.90;;;;;;6277174;22;20121;-88
2022/11/02 09:21:26;;;;;;;9.32;2.15;;;14.10;99.90;;;;;;6278365;22;20023;-87
2022/11/02 09:24:15;;;;;;;7.38;2.13;;;14.10;99.90;;;;;;6257578;22;20054;-88
2022/11/02 09:27:03;;;;;;;7.07;2.08;;;14.20;99.90;;;;;;6277816;22;20051;-89
2022/11/02 09:29:50;;;;;;;5.82;1.85;;;14.00;99.90;;;;;;6278749;22;20027;-88
2022/11/02 09:32:38;;;;;;;12.93;2.13;;;13.70;99.90;;;;;;6256031;22;20020;-88
2022/11/02 09:35:28;;;;;;;6.63;1.60;;;13.80;99.90;;;;;;6278259;22;20024;-86
2022/11/02 09:38:17;;;;;;;6.90;2.10;;;13.80;99.90;;;;;;6257554;22;20023;-87
2022/11/02 09:41:21;;;;;;;5.95;1.70;;;13.60;99.90;;;;;;6279673;22;20020;-85
2022/11/02 09:44:36;;;;;;;9.63;2.33;;;13.60;99.90;;;;;;6259114;22;20047;-84
2022/11/02 09:47:26;;;;;;;8.57;1.77;;;13.50;99.90;;;;;;6257370;22;20444;-89
2022/11/02 09:50:46;;;;;;;7.38;1.75;;;13.40;99.90;;;;;;6261038;22;20020;-86
2022/11/02 09:54:01;;;;;;;9.13;2.38;;;13.30;99.90;;;;;;6277319;22;20127;-87
2022/11/02 09:56:51;;;;;;;6.93;1.55;;;13.30;99.90;;;;;;6279119;22;20055;-88
2022/11/02 09:59:42;;;;;;;12.88;2.58;;;13.30;99.90;;;;;;6279006;22;20051;-88
2022/11/02 10:02:48;;;;;;;10.82;2.17;;;13.40;99.90;;;;;;6257169;22;20366;-86
2022/11/02 10:05:48;;;;;;;7.65;1.67;;;13.40;99.90;;;;;;6277348;22;20795;-86
2022/11/02 10:09:08;;;;;;;9.40;1.50;;;13.50;99.90;;;;;;6255589;22;20051;-87
2022/11/02 10:12:17;;;;;;;8.48;1.98;;;13.60;99.90;;;;;;6278572;22;20098;-88
2022/11/02 10:15:13;;;;;;;9.48;1.90;;;13.50;99.90;;;;;;6255298;22;20028;-88
2022/11/02 10:18:02;;;;;;;7.75;2.20;;;13.60;99.90;;;;;;6279452;22;20027;-85
2022/11/02 10:20:58;;;;;;;9.45;2.13;;;13.60;99.90;;;;;;6236615;22;20094;-85
2022/11/02 10:23:58;;;;;;;11.48;1.98;;;13.70;99.90;;;;;;6258933;22;20062;-85
2022/11/02 10:26:46;;;;;;;9.35;1.90;;;13.90;99.90;;;;;;6282904;22;20019;-85
2022/11/02 10:30:01;;;;;;;13.57;2.45;;;13.80;99.90;;;;;;6282054;22;20023;-86
2022/11/02 10:32:54;;;;;;;7.70;2.30;;;13.90;99.90;;;;;;6284094;22;20019;-87
2022/11/02 10:35:48;;;;;;;7.47;1.98;;;13.80;99.90;;;;;;6285121;22;20081;-86
2022/11/02 10:39:37;;;;;;;10.77;2.35;;;13.80;99.90;;;;;;6283231;22;20020;-88
2022/11/02 10:42:59;;;;;;;11.27;1.98;;;13.80;99.90;;;;;;6160482;23;20025;-86
2022/11/02 10:46:12;;;;;;;8.55;1.85;;;13.80;99.90;;;;;;6158250;23;20021;-85
2022/11/02 10:49:12;;;;;;;12.13;2.03;;;14.00;99.90;;;;;;6252015;22;20031;-89
2022/11/02 10:52:00;;;;;;;11.48;2.22;;;13.90;99.90;;;;;;6259852;22;20401;-88
2022/11/02 10:54:52;;;;;;;6.97;2.03;;;13.80;99.90;;;;;;6257814;22;20038;-87
2022/11/02 10:57:39;;;;;;;6.90;1.55;;;13.70;99.90;;;;;;6280062;22;20028;-84
2022/11/02 11:00:34;;;;;;;8.95;2.08;;;13.80;99.90;;;;;;6281927;22;20033;-86
2022/11/02 11:03:22;;;;;;;9.95;2.28;;;13.80;99.90;;;;;;6281412;22;20047;-88
2022/11/02 11:06:13;;;;;;;5.72;2.00;;;13.80;99.90;;;;;;6280446;22;20020;-86
2022/11/02 11:09:31;;;;;;;7.32;1.85;;;13.90;99.90;;;;;;6280121;22;20030;-86
2022/11/02 11:12:25;;;;;;;8.90;1.90;;;13.90;99.90;;;;;;6259609;22;20084;-86
2022/11/02 11:15:22;;;;;;;12.65;1.83;;;14.00;99.90;;;;;;6277607;22;20028;-86
2022/11/02 11:18:32;;;;;;;7.00;1.98;;;14.30;99.90;;;;;;6277614;22;20119;-85
2022/11/02 11:21:41;;;;;;;10.38;2.33;;;14.90;99.90;;;;;;6276092;22;20023;-90
2022/11/02 11:24:35;;;;;;;10.65;1.85;;;15.10;99.90;;;;;;6257076;22;20019;-83
2022/11/02 11:27:23;;;;;;;7.10;2.00;;;14.80;99.90;;;;;;6258295;22;20107;-84
2022/11/02 11:30:38;;;;;;;8.13;2.17;;;14.60;99.90;;;;;;6278646;22;20031;-87
2022/11/02 11:34:00;;;;;;;9.90;2.00;;;14.50;99.90;;;;;;6277985;22;20058;-87
2022/11/02 11:36:48;;;;;;;16.15;2.65;;;14.40;99.90;;;;;;6256019;22;20089;-85
2022/11/02 11:39:38;;;;;;;6.70;1.70;;;14.50;99.90;;;;;;6226663;22;1173666;-86
2022/11/02 11:42:29;;;;;;;8.25;1.98;;;14.80;99.90;;;;;;6283718;22;20684;-85
2022/11/02 11:45:21;;;;;;;6.05;1.98;;;15.20;99.90;;;;;;6277245;22;20051;-85
2022/11/02 11:48:23;;;;;;;11.35;1.77;;;16.00;99.90;;;;;;6276391;22;20020;-85
2022/11/02 11:51:28;;;;;;;8.50;2.08;;;17.40;99.90;;;;;;6254278;22;20095;-88
2022/11/02 11:54:29;;;;;;;4.78;1.48;;;19.30;99.90;;;;;;6276830;22;20023;-85
2022/11/02 11:57:33;;;;;;;3.17;1.35;;;20.80;90.90;;;;;;6275657;22;20120;-88
2022/11/02 12:00:28;;;;;;;6.32;1.70;;;21.60;61.40;;;;;;6275813;22;20383;-86
2022/11/02 12:03:17;;;;;;;6.15;1.58;;;21.90;42.40;;;;;;6254234;22;20099;-88
2022/11/02 12:06:17;;;;;;;3.95;1.08;;;21.90;30.00;;;;;;6275842;22;20047;-87
2022/11/02 12:09:32;;;;;;;14.80;1.88;;;21.60;22.40;;;;;;6253380;22;20330;-85
2022/11/02 12:12:44;;;;;;;5.53;1.42;;;21.30;17.10;;;;;;6255346;22;20061;-88
2022/11/02 12:15:40;;;;;;;6.03;1.52;;;21.50;11.90;;;;;;6277086;22;20034;-88
2022/11/02 12:18:44;;;;;;;4.93;1.65;;;21.30;10.30;;;;;;6276733;22;20326;-86
2022/11/02 12:22:04;;;;;;;6.13;1.13;;;22.30;4.10;;;;;;6275822;22;20055;-85
2022/11/02 12:25:13;;;;;;;7.43;1.55;;;21.00;1.00;;;;;;6275187;22;20099;-85
2022/11/02 12:28:19;;;;;;;9.57;2.42;;;21.50;1.00;;;;;;6254018;22;20066;-86
2022/11/02 12:31:18;;;;;;;5.25;1.50;;;21.70;1.00;;;;;;6276368;22;20418;-85
2022/11/02 12:34:14;;;;;;;4.75;1.40;;;22.30;1.00;;;;;;6276705;22;20031;-88
2022/11/02 12:37:20;;;;;;;6.30;1.58;;;22.20;1.00;;;;;;6277341;22;20098;-86
2022/11/02 12:41:02;;;;;;;8.20;1.77;;;20.60;1.00;;;;;;6276803;22;20024;-87
2022/11/02 12:44:03;;;;;;;9.47;1.80;;;20.30;1.00;;;;;;6257545;22;20143;-87
2022/11/02 12:47:34;;;;;;;8.02;1.90;;;20.50;1.00;;;;;;6256190;22;20254;-87
2022/11/02 12:50:21;;;;;;;4.25;1.40;;;21.40;1.00;;;;;;6200433;22;20081;-88
2022/11/02 12:53:24;;;;;;;3.83;1.50;;;21.50;1.00;;;;;;6277673;22;20395;-88
2022/11/02 12:56:25;;;;;;;8.95;1.67;;;22.20;1.00;;;;;;6278663;22;20042;-86
2022/11/02 12:59:24;;;;;;;6.55;1.60;;;22.70;1.00;;;;;;6255524;22;20345;-84
2022/11/02 13:02:20;;;;;;;6.53;1.23;;;23.40;1.00;;;;;;6256006;22;20110;-84
2022/11/02 13:05:16;;;;;;;6.25;1.55;;;23.40;1.00;;;;;;6254677;22;20027;-86
2022/11/02 13:08:23;;;;;;;5.97;1.98;;;23.10;1.00;;;;;;6277298;22;20456;-86
2022/11/02 13:11:32;;;;;;;4.55;1.40;;;21.90;1.00;;;;;;6256466;22;20027;-86
2022/11/02 13:14:23;;;;;;;5.88;1.30;;;21.80;1.00;;;;;;6277725;22;20283;-86
2022/11/02 13:17:20;;;;;;;5.60;1.75;;;21.70;1.00;;;;;;6255100;22;20059;-85
2022/11/02 13:20:24;;;;;;;4.43;1.30;;;22.40;1.00;;;;;;6256484;22;20395;-86
2022/11/02 13:23:24;;;;;;;5.50;1.42;;;22.20;1.00;;;;;;6256827;22;20028;-87
2022/11/02 13:26:33;;;;;;;;;;;21.80;1.00;;;;;;6258020;22;20086;-86
2022/11/02 13:29:43;;;;;;;3.85;1.30;;;21.60;1.00;;;;;;6261294;22;19942;-89
2022/11/02 13:32:48;;;;;;;6.20;1.67;;;20.50;1.00;;;;;;6281269;22;20031;-86
2022/11/02 13:35:42;;;;;;;5.68;1.48;;;19.40;1.00;;;;;;6257816;22;20024;-86
2022/11/02 13:38:51;;;;;;;6.45;1.40;;;19.00;1.00;;;;;;6259709;22;20098;-88
2022/11/02 13:41:55;;;;;;;6.88;1.70;;;18.40;1.00;;;;;;6258387;22;20103;-89
2022/11/02 13:45:08;;;;;;;5.10;1.33;;;17.80;1.00;;;;;;6256411;22;20077;-88
2022/11/02 13:48:17;;;;;;;8.05;1.80;;;18.30;1.00;;;;;;6257376;22;20084;-89
2022/11/02 13:51:50;;;;;;;7.32;2.28;;;18.10;1.00;;;;;;6278792;22;20081;-89
2022/11/02 13:54:37;;;;;;;5.85;1.33;;;17.10;1.00;;;;;;6258160;22;20429;-87
2022/11/02 13:57:33;;;;;;;7.60;1.80;;;16.50;1.00;;;;;;6258963;22;20028;-88
2022/11/02 14:00:23;;;;;;;;;;;16.10;1.00;;;;;;6256891;22;20042;-87
2022/11/02 14:03:19;;;;;;;7.43;3.20;;;15.90;1.00;;;;;;6279429;22;20148;-86
2022/11/02 14:06:12;;;;;;;7.88;2.30;;;16.60;1.00;;;;;;6280388;22;20028;-86
2022/11/02 14:09:08;;;;;;;4.88;1.48;;;16.80;1.00;;;;;;6280238;22;20015;-89
2022/11/02 14:12:23;;;;;;;6.03;1.80;;;17.50;1.00;;;;;;6279055;22;20020;-87
2022/11/02 14:15:14;;;;;;;6.65;1.63;;;18.40;1.00;;;;;;6277864;22;20023;-88
2022/11/02 14:18:11;;;;;;;5.88;1.42;;;19.40;1.00;;;;;;6277716;22;20031;-87
2022/11/02 14:21:37;;;;;;;3.97;1.23;;;20.50;1.00;;;;;;6280778;22;20034;-88
2022/11/02 14:24:36;;;;;;;3.30;1.42;;;21.50;1.00;;;;;;6278802;22;20418;-86
2022/11/02 14:27:23;;;;;;;4.13;1.75;;;22.30;1.00;;;;;;6276950;22;20089;-86
2022/11/02 14:30:40;;;;;;;9.32;1.38;;;22.80;1.00;;;;;;6276898;22;20026;-86
2022/11/02 14:34:07;;;;;;;5.15;1.40;;;22.80;1.00;;;;;;6276956;22;20052;-85
2022/11/02 14:37:27;;;;;;;6.22;1.48;;;22.90;1.00;;;;;;6254938;22;20028;-86
2022/11/02 14:40:33;;;;;;;7.00;1.52;;;22.40;1.00;;;;;;6277157;22;20039;-87
2022/11/02 14:43:44;;;;;;;6.00;1.75;;;22.50;1.00;;;;;;6255237;22;20034;-88
2022/11/02 14:46:55;;;;;;;5.80;1.50;;;22.40;1.00;;;;;;6273953;22;20182;-88
2022/11/02 14:50:05;;;;;;;4.63;1.52;;;22.60;1.00;;;;;;6277565;22;20161;-87
2022/11/02 14:53:07;;;;;;;6.82;1.50;;;22.30;1.00;;;;;;6253584;22;20031;-87
2022/11/02 14:55:55;;;;;;;4.68;1.05;;;20.80;1.00;;;;;;6257493;22;20034;-88
2022/11/02 14:58:54;;;;;;;7.07;1.98;;;20.30;1.00;;;;;;6279918;22;20051;-88
2022/11/02 15:02:22;;;;;;;4.53;1.50;;;20.20;1.00;;;;;;6280171;22;20055;-87
2022/11/02 15:05:22;;;;;;;7.28;1.38;;;19.90;1.00;;;;;;6230330;22;20047;-85
2022/11/02 15:08:18;;;;;;;7.20;1.77;;;19.40;1.00;;;;;;6256705;22;20023;-87
2022/11/02 15:11:43;;;;;;;6.95;1.80;;;18.30;1.00;;;;;;6277513;22;20023;-85
2022/11/02 15:14:42;;;;;;;4.43;1.30;;;17.60;1.00;;;;;;6276511;22;20430;-87
2022/11/02 15:17:30;;;;;;;3.97;1.30;;;17.50;1.00;;;;;;6277142;22;20023;-85
2022/11/02 15:20:32;;;;;;;5.53;1.58;;;17.70;1.00;;;;;;6254866;22;20038;-86
2022/11/02 15:23:26;;;;;;;7.83;1.60;;;17.70;1.00;;;;;;6277163;22;20058;-86
2022/11/02 15:26:30;;;;;;;5.28;1.42;;;17.70;1.00;;;;;;6254469;22;20031;-87
2022/11/02 15:29:26;;;;;;;19.08;1.98;;;17.50;1.00;;;;;;6276698;22;20026;-87